Rochester/St. Mary\'s Hospita, MN

1:44 AM CST on December 14, 2019 (GMT -0600)
Rochester/St. Mary\'s Hospita

Weather History for K9MN - October, 2019

Change the Weather History Date:

Sunday, October 6, 2019

  Actual Average (WUND) Record (WUND)
Temperature  
Mean Temperature 55 °F -  
Max Temperature 64 °F - - (-1)
Min Temperature 46 °F - - (-1)
Degree Days  
Heating Degree Days 10    
Growing Degree Days 5 (Base 50)    
Moisture  
Dew Point 39 °F    
Average Humidity 59    
Maximum Humidity 86    
Minimum Humidity 34    
Precipitation  
Precipitation 0.00 in - - ()
Sea Level Pressure  
Sea Level Pressure 30.00 in    
Wind  
Wind Speed 13 mph (WSW)    
Max Wind Speed 24 mph    
Max Gust Speed 38 mph    
Visibility 10 miles    
Events      
Averages and records for this station are not official NWS values.
T = Trace of Precipitation, MM = Missing Value Source: NWS Daily Summary

Daily Weather History Graph

Daily Weather History Graph

Search for Another Location

Airport or City:

Astronomy

Oct. 06, 2019 Rise Set
Actual Time 7:13 AM CDT 6:42 PM CDT
Civil Twilight 6:44 AM CDT 7:10 PM CDT
Nautical Twilight 6:11 AM CDT 7:44 PM CDT
Astronomical Twilight 5:37 AM CDT 8:17 PM CDT
Moon 3:36 PM CDT (10/6) No Moon Set
Length of Visible Light 12h 26m
Length of Day
11h 28m
First Quarter, 60% of the Moon is Illuminated
Oct 6
First Quarter
Oct 13
Full
Oct 21
Last Quarter
Oct 27
New
Nov 4
First Quarter

Hourly Weather History & Observations

Time (CDT) Temp. Dew Point Humidity Pressure Visibility Wind Dir Wind Speed Gust Speed Precip Events Conditions
12:35 AM 48.6 °F 43.2 °F 82% 29.90 in 10.0 mi SW 12.7 mph - N/A   Clear
12:55 AM 48.2 °F 43.0 °F 82% 29.90 in 10.0 mi WSW 12.7 mph 19.6 mph N/A   Clear
12:56 AM 48.2 °F 43.0 °F 82% 29.90 in 10.0 mi WSW 11.5 mph 19.6 mph N/A   Clear
1:15 AM 48.2 °F 42.8 °F 82% 29.90 in 10.0 mi WSW 12.7 mph 17.3 mph N/A   Clear
1:35 AM 47.7 °F 42.8 °F 83% 29.91 in 10.0 mi WSW 11.5 mph 17.3 mph N/A   Clear
1:55 AM 48.2 °F 43.0 °F 82% 29.91 in 10.0 mi WSW 15.0 mph 23.0 mph N/A   Clear
1:56 AM 48.0 °F 43.0 °F 83% 29.91 in 10.0 mi WSW 16.1 mph 23.0 mph N/A   Clear
2:15 AM 48.6 °F 42.8 °F 80% 29.92 in 10.0 mi WSW 12.7 mph 23.0 mph N/A   Clear
2:16 AM 48.6 °F 42.8 °F 80% 29.92 in 10.0 mi WSW 13.8 mph 23.0 mph N/A   Clear
2:35 AM 48.4 °F 42.8 °F 81% 29.92 in 10.0 mi WSW 11.5 mph 17.3 mph N/A   Clear
2:55 AM 48.0 °F 42.8 °F 82% 29.92 in 10.0 mi WSW 12.7 mph 18.4 mph N/A   Clear
3:15 AM 47.3 °F 42.8 °F 84% 29.92 in 7.0 mi WSW 10.4 mph 17.3 mph N/A   Clear
3:16 AM 47.3 °F 42.8 °F 84% 29.92 in 7.0 mi WSW 10.4 mph 17.3 mph N/A   Clear
3:35 AM 46.9 °F 43.0 °F 86% 29.92 in 10.0 mi WSW 9.2 mph 17.3 mph N/A   Clear
3:36 AM 46.9 °F 43.0 °F 86% 29.92 in 10.0 mi WSW 10.4 mph 16.1 mph N/A   Clear
3:55 AM 47.1 °F 43.0 °F 86% 29.92 in 10.0 mi WSW 12.7 mph 18.4 mph N/A   Clear
4:15 AM 47.3 °F 42.8 °F 84% 29.92 in 10.0 mi SW 11.5 mph 17.3 mph N/A   Clear
4:35 AM 47.3 °F 42.3 °F 83% 29.92 in 10.0 mi WSW 15.0 mph 21.9 mph N/A   Clear
4:36 AM 47.3 °F 42.1 °F 82% 29.92 in 10.0 mi WSW 15.0 mph 21.9 mph N/A   Clear
4:55 AM 47.3 °F 41.9 °F 82% 29.93 in 10.0 mi WSW 10.4 mph 16.1 mph N/A   Clear
4:56 AM 47.3 °F 41.9 °F 82% 29.93 in 10.0 mi WSW 10.4 mph 16.1 mph N/A   Clear
5:15 AM 46.9 °F 41.9 °F 83% 29.94 in 10.0 mi WSW 12.7 mph - N/A   Clear
5:35 AM 46.9 °F 41.5 °F 81% 29.94 in 10.0 mi WSW 10.4 mph 17.3 mph N/A   Clear
5:55 AM 46.8 °F 41.4 °F 81% 29.95 in 10.0 mi WSW 11.5 mph 18.4 mph N/A   Clear
5:56 AM 46.8 °F 41.4 °F 81% 29.95 in 10.0 mi WSW 11.5 mph 18.4 mph N/A   Clear
6:15 AM 46.8 °F 41.0 °F 80% 29.95 in 10.0 mi WSW 11.5 mph 18.4 mph N/A   Clear
6:35 AM 46.6 °F 40.6 °F 80% 29.95 in 10.0 mi WSW 11.5 mph - N/A   Clear
6:55 AM 46.8 °F 40.5 °F 79% 29.95 in 10.0 mi WSW 10.4 mph 16.1 mph N/A   Clear
7:15 AM 47.3 °F 40.1 °F 76% 29.96 in 10.0 mi WSW 12.7 mph 19.6 mph N/A   Clear
7:16 AM 47.5 °F 40.1 °F 76% 29.95 in 10.0 mi WSW 12.7 mph 19.6 mph N/A   Clear
7:35 AM 47.7 °F 39.7 °F 74% 29.96 in 10.0 mi WSW 10.4 mph 17.3 mph N/A   Clear
7:55 AM 47.8 °F 40.1 °F 75% 29.97 in 10.0 mi WSW 11.5 mph 17.3 mph N/A   Clear
8:15 AM 48.4 °F 40.1 °F 73% 29.98 in 10.0 mi WSW 10.4 mph 17.3 mph N/A   Clear
8:16 AM 48.4 °F 40.1 °F 73% 29.98 in 10.0 mi WSW 11.5 mph 17.3 mph N/A   Clear
8:35 AM 48.6 °F 40.1 °F 73% 29.99 in 10.0 mi WSW 12.7 mph 19.6 mph N/A   Clear
8:36 AM 48.6 °F 40.1 °F 73% 29.98 in 10.0 mi SW 13.8 mph 19.6 mph N/A   Clear
8:55 AM 48.6 °F 40.3 °F 73% 29.99 in 10.0 mi WSW 11.5 mph 21.9 mph N/A   Clear
9:15 AM 49.6 °F 40.5 °F 71% 30.00 in 10.0 mi WSW 11.5 mph 19.6 mph N/A   Clear
9:35 AM 51.3 °F 40.6 °F 67% 30.01 in 10.0 mi West 10.4 mph 23.0 mph N/A   Clear
9:36 AM 51.3 °F 40.6 °F 67% 30.01 in 10.0 mi West 9.2 mph 18.4 mph N/A   Clear
9:55 AM 52.7 °F 40.8 °F 64% 30.01 in 10.0 mi WSW 5.8 mph 18.4 mph N/A   Clear
9:56 AM 52.7 °F 40.8 °F 64% 30.01 in 10.0 mi WSW 8.1 mph 18.4 mph N/A   Clear
10:15 AM 53.8 °F 41.0 °F 62% 30.02 in 10.0 mi WSW 9.2 mph 19.6 mph N/A   Clear
10:35 AM 55.6 °F 41.0 °F 58% 30.02 in 10.0 mi SW 11.5 mph 20.7 mph N/A   Clear
10:55 AM 57.2 °F 40.1 °F 53% 30.02 in 10.0 mi SW 11.5 mph 19.6 mph N/A   Clear
10:56 AM 57.2 °F 40.3 °F 53% 30.02 in 10.0 mi SW 10.4 mph 19.6 mph N/A   Clear
11:15 AM 58.8 °F 40.5 °F 51% 30.02 in 10.0 mi WSW 10.4 mph 20.7 mph N/A   Clear
11:16 AM 58.8 °F 40.3 °F 50% 30.02 in 10.0 mi WSW 9.2 mph 20.7 mph N/A   Clear
11:35 AM 59.9 °F 39.2 °F 46% 30.02 in 10.0 mi WSW 13.8 mph 28.8 mph N/A   Clear
11:55 AM 61.2 °F 39.2 °F 44% 30.02 in 10.0 mi WSW 12.7 mph 21.9 mph N/A   Clear
12:15 PM 61.5 °F 37.4 °F 41% 30.02 in 10.0 mi WSW 16.1 mph 26.5 mph N/A   Clear
12:35 PM 62.2 °F 37.4 °F 40% 30.02 in 10.0 mi West 18.4 mph 27.6 mph N/A   Clear
12:36 PM 62.4 °F 37.2 °F 39% 30.02 in 10.0 mi West 19.6 mph 27.6 mph N/A   Clear
12:55 PM 62.2 °F 36.3 °F 38% 30.02 in 10.0 mi West 15.0 mph 33.4 mph N/A   Clear
1:15 PM 62.8 °F 36.7 °F 38% 30.02 in 10.0 mi WSW 18.4 mph 29.9 mph N/A   Clear
1:35 PM 63.0 °F 36.5 °F 37% 30.01 in 10.0 mi WSW 23.0 mph 29.9 mph N/A   Clear
1:55 PM 63.5 °F 36.5 °F 37% 30.01 in 10.0 mi West 17.3 mph 26.5 mph N/A   Clear
1:56 PM 63.5 °F 36.7 °F 37% 30.01 in 10.0 mi West 15.0 mph 26.5 mph N/A   Clear
2:15 PM 63.5 °F 36.1 °F 36% 30.00 in 10.0 mi WSW 20.7 mph 33.4 mph N/A   Clear
2:16 PM 63.5 °F 36.0 °F 36% 30.00 in 10.0 mi WSW 24.2 mph 33.4 mph N/A   Clear
2:35 PM 64.2 °F 35.8 °F 35% 29.99 in 10.0 mi West 23.0 mph 35.7 mph N/A   Scattered Clouds
2:55 PM 64.6 °F 36.3 °F 35% 30.00 in 10.0 mi West 19.6 mph 29.9 mph N/A   Scattered Clouds
3:15 PM 63.9 °F 35.8 °F 35% 30.00 in 10.0 mi WSW 16.1 mph 33.4 mph N/A   Scattered Clouds
3:16 PM 64.0 °F 36.0 °F 35% 30.00 in 10.0 mi West 20.7 mph 33.4 mph N/A   Scattered Clouds
3:35 PM 64.2 °F 36.0 °F 35% 29.99 in 10.0 mi West 18.4 mph 32.2 mph N/A   Scattered Clouds
3:36 PM 64.4 °F 36.0 °F 35% 30.00 in 10.0 mi West 21.9 mph 32.2 mph N/A   Scattered Clouds
3:55 PM 63.7 °F 34.9 °F 34% 30.00 in 10.0 mi West 18.4 mph 33.4 mph N/A   Scattered Clouds
4:15 PM 63.7 °F 35.6 °F 35% 29.99 in 10.0 mi West 21.9 mph 33.4 mph N/A   Scattered Clouds
4:35 PM 63.9 °F 36.0 °F 36% 30.00 in 10.0 mi WSW 21.9 mph 38.0 mph N/A   Scattered Clouds
4:36 PM 63.9 °F 36.0 °F 36% 30.00 in 10.0 mi WSW 20.7 mph 38.0 mph N/A   Scattered Clouds
4:55 PM 63.9 °F 36.5 °F 36% 30.00 in 10.0 mi West 16.1 mph 35.7 mph N/A   Mostly Cloudy
4:56 PM 63.9 °F 36.7 °F 37% 30.00 in 10.0 mi WSW 17.3 mph 35.7 mph N/A   Mostly Cloudy
5:15 PM 63.1 °F 36.9 °F 38% 30.01 in 10.0 mi West 13.8 mph 29.9 mph N/A   Mostly Cloudy
5:35 PM 62.8 °F 37.4 °F 39% 30.01 in 10.0 mi West 11.5 mph 24.2 mph N/A   Overcast
5:55 PM 62.2 °F 37.4 °F 40% 30.02 in 10.0 mi WSW 10.4 mph 20.7 mph N/A   Mostly Cloudy
5:56 PM 62.2 °F 37.4 °F 40% 30.02 in 10.0 mi WSW 13.8 mph 20.7 mph N/A   Mostly Cloudy
6:15 PM 62.1 °F 37.8 °F 41% 30.02 in 10.0 mi West 9.2 mph 17.3 mph N/A   Scattered Clouds
6:16 PM 62.1 °F 37.8 °F 41% 30.02 in 10.0 mi West 8.1 mph 17.3 mph N/A   Scattered Clouds
6:35 PM 60.8 °F 37.9 °F 43% 30.02 in 10.0 mi WSW 8.1 mph 16.1 mph N/A   Clear
6:55 PM 59.4 °F 38.1 °F 45% 30.03 in 10.0 mi West 8.1 mph - N/A   Clear
7:15 PM 58.5 °F 38.3 °F 47% 30.04 in 10.0 mi WSW 10.4 mph - N/A   Clear
7:35 PM 57.7 °F 38.5 °F 49% 30.04 in 10.0 mi WSW 10.4 mph - N/A   Scattered Clouds
7:36 PM 57.7 °F 38.5 °F 49% 30.04 in 10.0 mi WSW 10.4 mph - N/A   Scattered Clouds
7:55 PM 57.2 °F 38.7 °F 50% 30.05 in 10.0 mi WSW 12.7 mph - N/A   Clear
7:56 PM 57.2 °F 38.7 °F 50% 30.05 in 10.0 mi WSW 12.7 mph - N/A   Clear
8:15 PM 57.0 °F 38.7 °F 50% 30.05 in 10.0 mi WSW 11.5 mph 19.6 mph N/A   Clear
8:35 PM 56.3 °F 38.8 °F 52% 30.06 in 10.0 mi WSW 12.7 mph 20.7 mph N/A   Clear
8:36 PM 56.3 °F 38.8 °F 52% 30.05 in 10.0 mi WSW 12.7 mph 20.7 mph N/A   Clear
8:55 PM 56.3 °F 38.7 °F 52% 30.06 in 10.0 mi WSW 13.8 mph 21.9 mph N/A   Clear
8:56 PM 56.3 °F 38.7 °F 52% 30.06 in 10.0 mi WSW 13.8 mph 21.9 mph N/A   Clear
9:15 PM 55.4 °F 39.2 °F 54% 30.06 in 10.0 mi WSW 16.1 mph 21.9 mph N/A   Clear
9:16 PM 55.4 °F 39.2 °F 54% 30.06 in 10.0 mi WSW 17.3 mph 21.9 mph N/A   Clear
9:35 PM 55.0 °F 39.2 °F 55% 30.07 in 10.0 mi WSW 12.7 mph 19.6 mph N/A   Clear
9:55 PM 55.0 °F 38.8 °F 54% 30.07 in 10.0 mi West 10.4 mph 21.9 mph N/A   Clear
10:15 PM 54.7 °F 38.8 °F 55% 30.07 in 10.0 mi West 11.5 mph 21.9 mph N/A   Scattered Clouds
10:16 PM 54.5 °F 38.8 °F 56% 30.07 in 10.0 mi West 11.5 mph 21.9 mph N/A   Scattered Clouds
10:35 PM 54.3 °F 38.5 °F 55% 30.08 in 10.0 mi WSW 10.4 mph 21.9 mph N/A   Scattered Clouds
10:36 PM 54.3 °F 38.7 °F 55% 30.08 in 10.0 mi West 9.2 mph 21.9 mph N/A   Scattered Clouds
10:55 PM 53.6 °F 38.7 °F 57% 30.08 in 10.0 mi WSW 11.5 mph 18.4 mph N/A   Mostly Cloudy
11:15 PM 53.2 °F 38.8 °F 58% 30.08 in 10.0 mi WSW 11.5 mph 17.3 mph N/A   Overcast
11:35 PM 53.2 °F 38.8 °F 58% 30.08 in 10.0 mi WSW 11.5 mph 18.4 mph N/A   Overcast
11:55 PM 53.4 °F 39.0 °F 58% 30.08 in 10.0 mi WSW 13.8 mph 17.3 mph N/A   Overcast
11:56 PM 53.6 °F 39.0 °F 58% 30.08 in 10.0 mi WSW 11.5 mph 17.3 mph N/A   Overcast